Companheiros Cristo — CUCS8 — position and weather

sailwx.info

Track history (hours):
 
Tides and Currents Weather Stations Pressure Air Temp Water Temp Dewpoint Dewpoint Depression Visibility Wind Speed Wind Dir Waves Ship Positions

Companheiros Cristo

Last reported at 2018-May-21 21:43 UTC. Time now 2018-May-22 01:59 UTC.
Position N 39°14' W 009°31'.

MMSI: 263406390.

Date/timePositionNaut miles runAvg speedWind from/ knotsBaromVisibWave heightAir tempDewpointWater temp
2018-May-21 21:43N 39°14' W 009°31'2 7.3
2018-May-21 21:30N 39°15' W 009°29'3 0.1
2018-May-21 00:58N 39°17' W 009°28'4 6.9
2018-May-21 00:26N 39°15' W 009°32'3 7.0
2018-May-21 00:01N 39°13' W 009°35'4 7.0
2018-May-20 23:30N 39°11' W 009°38'3 6.5
2018-May-20 23:01N 39°09' W 009°42'2 4.3
2018-May-20 22:30N 39°08' W 009°44'1 1.0
2018-May-20 22:00N 39°08' W 009°44'1 1.7
2018-May-20 21:30N 39°07' W 009°44'1 1.0
2018-May-20 21:00N 39°07' W 009°45'  
2018-May-17 15:54N 39°18' W 009°33'3 6.5
2018-May-17 15:30N 39°19' W 009°30'3 6.7
2018-May-17 15:00N 39°20' W 009°25'3 0.2
2018-May-17 03:54N 39°21' W 009°22'0 0.0
2018-May-17 03:30N 39°21' W 009°22'  
2018-May-14 16:09N 39°14' W 009°35'1 6.5
2018-May-14 16:00N 39°15' W 009°34'3 6.5
2018-May-14 15:30N 39°16' W 009°31'2 0.2
2018-May-14 03:26N 39°18' W 009°28'3 6.2
2018-May-14 02:56N 39°17' W 009°32'3 5.7
2018-May-14 02:24N 39°16' W 009°36'20 4.4
2018-May-13 21:56N 38°58' W 009°47'2 4.9
2018-May-13 21:31N 38°56' W 009°48'2 5.0
2018-May-13 21:01N 38°54' W 009°49'2 4.8
2018-May-13 20:31N 38°51' W 009°50'1 1.3
2018-May-13 20:00N 38°51' W 009°50'1 1.2
2018-May-13 19:31N 38°51' W 009°51'0 0.9
2018-May-13 19:01N 38°50' W 009°51'  
Track history (hours):
 
Tides and Currents Weather Stations Pressure Air Temp Water Temp Dewpoint Dewpoint Depression Visibility Wind Speed Wind Dir Waves Ship Positions

Companheiros Cristo

Last reported at 2018-May-21 21:43 UTC. Time now 2018-May-22 01:59 UTC.
Position N 39°14' W 009°31'.

MMSI: 263406390.

Date/timePositionNaut miles runAvg speedWind from/ knotsBaromVisibWave heightAir tempDewpointWater temp
2018-May-21 21:43N 39°14' W 009°31'2 7.3
2018-May-21 21:30N 39°15' W 009°29'3 0.1
2018-May-21 00:58N 39°17' W 009°28'4 6.9
2018-May-21 00:26N 39°15' W 009°32'3 7.0
2018-May-21 00:01N 39°13' W 009°35'4 7.0
2018-May-20 23:30N 39°11' W 009°38'3 6.5
2018-May-20 23:01N 39°09' W 009°42'2 4.3
2018-May-20 22:30N 39°08' W 009°44'1 1.0
2018-May-20 22:00N 39°08' W 009°44'1 1.7
2018-May-20 21:30N 39°07' W 009°44'1 1.0
2018-May-20 21:00N 39°07' W 009°45'  
2018-May-17 15:54N 39°18' W 009°33'3 6.5
2018-May-17 15:30N 39°19' W 009°30'3 6.7
2018-May-17 15:00N 39°20' W 009°25'3 0.2
2018-May-17 03:54N 39°21' W 009°22'0 0.0
2018-May-17 03:30N 39°21' W 009°22'  
2018-May-14 16:09N 39°14' W 009°35'1 6.5
2018-May-14 16:00N 39°15' W 009°34'3 6.5
2018-May-14 15:30N 39°16' W 009°31'2 0.2
2018-May-14 03:26N 39°18' W 009°28'3 6.2
2018-May-14 02:56N 39°17' W 009°32'3 5.7
2018-May-14 02:24N 39°16' W 009°36'20 4.4
2018-May-13 21:56N 38°58' W 009°47'2 4.9
2018-May-13 21:31N 38°56' W 009°48'2 5.0
2018-May-13 21:01N 38°54' W 009°49'2 4.8
2018-May-13 20:31N 38°51' W 009°50'1 1.3
2018-May-13 20:00N 38°51' W 009°50'1 1.2
2018-May-13 19:31N 38°51' W 009°51'0 0.9
2018-May-13 19:01N 38°50' W 009°51'  

Dump ship's entire track history